createdAt,value
2023-01-02T00:00:08.053Z,10.50
2023-01-02T00:02:34.812Z,10.40
2023-01-02T00:05:01.505Z,10.50
2023-01-02T00:07:28.119Z,10.50
2023-01-02T00:09:54.717Z,10.40
2023-01-02T00:12:21.379Z,10.40
2023-01-02T00:14:47.967Z,10.50
2023-01-02T00:17:14.728Z,10.40
2023-01-02T00:19:41.298Z,10.40
2023-01-02T00:22:07.921Z,10.40
2023-01-02T00:24:34.525Z,10.50
2023-01-02T00:27:01.136Z,10.40
2023-01-02T00:29:27.725Z,10.40
2023-01-02T00:31:54.325Z,10.40
2023-01-02T00:34:20.920Z,10.40
2023-01-02T00:36:47.530Z,10.40
2023-01-02T00:39:14.259Z,10.30
2023-01-02T00:41:40.878Z,10.40
2023-01-02T00:44:07.473Z,10.30
2023-01-02T00:46:34.128Z,10.30
2023-01-02T00:49:00.791Z,10.30
2023-01-02T00:51:27.401Z,10.40
2023-01-02T00:53:53.981Z,10.30
2023-01-02T00:56:20.606Z,10.40
2023-01-02T00:58:47.194Z,10.40
2023-01-02T01:01:13.874Z,10.30
2023-01-02T01:03:43.302Z,10.40
2023-01-02T01:06:10.213Z,10.30
2023-01-02T01:08:37.201Z,10.40
2023-01-02T01:11:08.161Z,10.30
2023-01-02T01:13:34.836Z,10.30
2023-01-02T01:16:08.868Z,10.30
2023-01-02T01:18:35.611Z,10.30
2023-01-02T01:21:31.631Z,10.30
2023-01-02T01:23:58.229Z,10.30
2023-01-02T01:26:24.840Z,10.30
2023-01-02T01:28:54.978Z,10.30
2023-01-02T01:31:21.714Z,10.20
2023-01-02T01:33:49.694Z,10.30
2023-01-02T01:36:17.943Z,10.30
2023-01-02T01:38:44.669Z,10.20
2023-01-02T01:41:15.900Z,10.10
2023-01-02T01:43:56.330Z,10.20
2023-01-02T01:46:45.088Z,10.30
2023-01-02T01:49:28.649Z,10.20
2023-01-02T01:52:06.581Z,10.20
2023-01-02T01:54:38.491Z,10.20
2023-01-02T01:57:14.332Z,10.20
2023-01-02T01:59:40.934Z,10.20
2023-01-02T02:02:07.639Z,10.20
2023-01-02T02:04:34.607Z,10.10
2023-01-02T02:07:01.238Z,10.30
2023-01-02T02:09:35.632Z,10.20
2023-01-02T02:12:03.331Z,10.20
2023-01-02T02:14:29.940Z,10.20
2023-01-02T02:17:08.496Z,10.20
2023-01-02T02:19:53.820Z,10.30
2023-01-02T02:22:39.189Z,10.10
2023-01-02T02:25:14.686Z,10.20
2023-01-02T02:27:58.351Z,10.20
2023-01-02T02:30:27.709Z,10.30
2023-01-02T02:33:03.267Z,10.20
2023-01-02T02:35:43.867Z,10.10
2023-01-02T02:38:13.287Z,10.10
2023-01-02T02:41:14.562Z,10.10
2023-01-02T02:44:08.716Z,10.10
2023-01-02T02:46:49.243Z,10.00
2023-01-02T02:49:24.586Z,10.10
2023-01-02T02:51:56.818Z,10.10
2023-01-02T02:54:52.854Z,10.00
2023-01-02T02:57:19.790Z,10.10
2023-01-02T02:59:46.375Z,10.10
2023-01-02T03:02:16.652Z,10.20
2023-01-02T03:04:48.030Z,10.20
2023-01-02T03:07:14.592Z,10.20
2023-01-02T03:09:54.326Z,10.20
2023-01-02T03:12:27.047Z,10.10
2023-01-02T03:15:15.534Z,10.00
2023-01-02T03:18:05.851Z,10.10
2023-01-02T03:20:37.966Z,10.20
2023-01-02T03:23:06.758Z,10.20
2023-01-02T03:25:34.251Z,10.20
2023-01-02T03:28:00.874Z,10.20
2023-01-02T03:30:27.550Z,10.30
2023-01-02T03:33:00.717Z,10.10
2023-01-02T03:35:32.030Z,10.10
2023-01-02T03:37:58.787Z,10.20
2023-01-02T03:40:27.217Z,10.20
2023-01-02T03:43:23.737Z,10.20
2023-01-02T03:46:21.311Z,10.20
2023-01-02T03:49:11.989Z,10.10
2023-01-02T03:51:38.711Z,10.00
2023-01-02T03:54:05.393Z,10.10
2023-01-02T03:56:50.260Z,10.20
2023-01-02T03:59:23.723Z,10.20
2023-01-02T04:02:00.328Z,10.10
2023-01-02T04:04:54.891Z,10.00
2023-01-02T04:07:27.355Z,10.10
2023-01-02T04:09:53.991Z,10.10
2023-01-02T04:12:20.923Z,10.00
2023-01-02T04:14:50.098Z,10.10
2023-01-02T04:17:17.177Z,10.10
2023-01-02T04:19:55.399Z,10.10
2023-01-02T04:22:24.721Z,10.10
2023-01-02T04:24:55.263Z,10.10
2023-01-02T04:27:27.350Z,10.10
2023-01-02T04:29:54.247Z,10.10
2023-01-02T04:32:29.869Z,10.20
2023-01-02T04:34:56.477Z,10.00
2023-01-02T04:37:34.668Z,10.00
2023-01-02T04:40:04.407Z,10.10
2023-01-02T04:42:31.229Z,10.10
2023-01-02T04:44:57.860Z,10.00
2023-01-02T04:47:24.490Z,10.00
2023-01-02T04:49:51.076Z,9.90
2023-01-02T04:52:17.689Z,9.80
2023-01-02T04:54:44.287Z,10.00
2023-01-02T04:57:10.891Z,10.00
2023-01-02T04:59:37.477Z,10.00
2023-01-02T05:02:04.148Z,10.00
2023-01-02T05:04:30.783Z,10.00
2023-01-02T05:06:57.382Z,9.90
2023-01-02T05:09:23.977Z,9.90
2023-01-02T05:11:50.592Z,10.00
2023-01-02T05:14:17.296Z,10.10
2023-01-02T05:16:43.903Z,10.00
2023-01-02T05:19:10.504Z,9.90
2023-01-02T05:21:55.672Z,9.90
2023-01-02T05:24:22.258Z,10.00
2023-01-02T05:26:48.861Z,9.90
2023-01-02T05:29:15.492Z,9.90
2023-01-02T05:31:42.146Z,10.00
2023-01-02T05:34:12.615Z,10.00
2023-01-02T05:36:39.213Z,9.90
2023-01-02T05:39:09.810Z,9.90
2023-01-02T05:41:36.405Z,9.90
2023-01-02T05:44:02.991Z,9.90
2023-01-02T05:46:29.639Z,9.90
2023-01-02T05:48:56.256Z,9.70
2023-01-02T05:51:22.880Z,9.90
2023-01-02T05:53:50.783Z,9.80
2023-01-02T05:56:18.034Z,9.80
2023-01-02T05:58:45.792Z,9.70
2023-01-02T06:01:14.296Z,9.70
2023-01-02T06:03:44.716Z,9.80
2023-01-02T06:06:11.434Z,9.80
2023-01-02T06:08:38.077Z,9.80
2023-01-02T06:11:05.028Z,9.90
2023-01-02T06:13:32.250Z,9.60
2023-01-02T06:15:59.708Z,9.80
2023-01-02T06:18:26.736Z,9.80
2023-01-02T06:20:57.371Z,9.80
2023-01-02T06:23:23.954Z,9.50
2023-01-02T06:25:50.566Z,9.70
2023-01-02T06:28:17.156Z,9.80
2023-01-02T06:30:43.762Z,9.80
2023-01-02T06:33:10.357Z,9.60
2023-01-02T06:35:36.963Z,9.40
2023-01-02T06:38:03.572Z,9.70
2023-01-02T06:40:30.202Z,9.90
2023-01-02T06:43:00.050Z,9.70
2023-01-02T06:45:27.017Z,9.80
2023-01-02T06:47:57.796Z,9.90
2023-01-02T06:50:27.339Z,9.70
2023-01-02T06:52:58.022Z,9.50
2023-01-02T06:55:24.618Z,9.30
2023-01-02T06:57:51.214Z,9.70
2023-01-02T07:00:18.319Z,9.40
2023-01-02T07:02:45.067Z,9.70
2023-01-02T07:05:12.664Z,9.50
2023-01-02T07:07:39.296Z,9.60
2023-01-02T07:10:06.197Z,9.60
2023-01-02T07:12:35.964Z,9.50
2023-01-02T07:15:03.619Z,9.80
2023-01-02T07:17:31.317Z,9.80
2023-01-02T07:20:01.729Z,9.80
2023-01-02T07:22:28.984Z,9.80
2023-01-02T07:24:55.584Z,9.60
2023-01-02T07:27:22.209Z,9.70
2023-01-02T07:29:48.794Z,9.60
2023-01-02T07:32:15.393Z,9.40
2023-01-02T07:34:41.991Z,9.60
2023-01-02T07:37:08.589Z,9.50
2023-01-02T07:39:35.181Z,9.60
2023-01-02T07:42:01.792Z,9.80
2023-01-02T07:44:28.388Z,9.60
2023-01-02T07:46:55.044Z,9.50
2023-01-02T07:49:21.660Z,9.40
2023-01-02T07:51:48.267Z,9.70
2023-01-02T07:54:14.879Z,9.50
2023-01-02T07:56:41.488Z,9.30
2023-01-02T07:59:09.458Z,9.10
2023-01-02T08:01:37.468Z,9.30
2023-01-02T08:04:04.157Z,9.60
2023-01-02T08:06:30.886Z,9.20
2023-01-02T08:08:57.492Z,9.10
2023-01-02T08:11:24.160Z,9.10
2023-01-02T08:13:50.961Z,8.90
2023-01-02T08:16:21.444Z,9.00
2023-01-02T08:18:48.976Z,9.20
2023-01-02T08:21:15.705Z,9.50
2023-01-02T08:23:42.308Z,9.70
2023-01-02T08:26:09.544Z,9.70
2023-01-02T08:28:36.444Z,9.30
2023-01-02T08:31:10.943Z,9.60
2023-01-02T08:33:37.672Z,9.60
2023-01-02T08:36:04.435Z,9.60
2023-01-02T08:38:31.040Z,9.50
2023-01-02T08:40:59.050Z,9.10
2023-01-02T08:43:26.270Z,8.80
2023-01-02T08:45:53.468Z,9.30
2023-01-02T08:48:21.710Z,8.90
2023-01-02T08:50:49.724Z,8.90
2023-01-02T08:53:16.381Z,9.30
2023-01-02T08:55:42.985Z,9.10
2023-01-02T08:58:09.606Z,9.00
2023-01-02T09:00:36.210Z,9.00
2023-01-02T09:03:02.920Z,9.20
2023-01-02T09:05:30.907Z,8.90
2023-01-02T09:07:58.538Z,8.90
2023-01-02T09:10:25.250Z,9.20
2023-01-02T09:12:51.918Z,8.80
2023-01-02T09:15:18.583Z,8.00
2023-01-02T09:17:45.237Z,8.00
2023-01-02T09:20:11.830Z,8.00
2023-01-02T09:22:38.511Z,8.10
2023-01-02T09:25:05.611Z,7.90
2023-01-02T09:27:32.240Z,8.10
2023-01-02T09:29:58.837Z,8.40
2023-01-02T09:32:25.624Z,8.30
2023-01-02T09:34:52.226Z,8.10
2023-01-02T09:37:18.875Z,8.80
2023-01-02T09:39:45.492Z,8.50
2023-01-02T09:42:16.064Z,8.30
2023-01-02T09:44:48.298Z,8.90
2023-01-02T09:47:20.034Z,9.30
2023-01-02T09:50:03.721Z,8.90
2023-01-02T09:52:33.868Z,9.20
2023-01-02T09:55:00.687Z,9.30
2023-01-02T09:57:27.311Z,9.10
2023-01-02T10:00:19.909Z,9.10
2023-01-02T10:03:15.849Z,8.90
2023-01-02T10:05:59.211Z,8.60
2023-01-02T10:08:32.253Z,9.40
2023-01-02T10:11:08.267Z,8.90
2023-01-02T10:14:17.634Z,9.20
2023-01-02T10:16:36.654Z,9.10
2023-01-02T10:19:05.196Z,9.00
2023-01-02T10:21:34.041Z,9.20
2023-01-02T10:24:03.459Z,9.00
2023-01-02T10:26:35.815Z,8.80
2023-01-02T10:29:17.439Z,8.70
2023-01-02T10:32:05.206Z,9.00
2023-01-02T10:34:56.353Z,9.30
2023-01-02T10:37:22.963Z,9.20
2023-01-02T10:39:49.908Z,9.10
2023-01-02T10:42:16.533Z,9.00
2023-01-02T10:44:44.239Z,9.00
2023-01-02T10:47:16.731Z,9.20
2023-01-02T10:49:43.509Z,9.00
2023-01-02T10:52:15.756Z,9.00
2023-01-02T10:54:59.147Z,9.00
2023-01-02T10:57:38.143Z,9.20
2023-01-02T11:00:05.979Z,9.40
2023-01-02T11:02:40.135Z,9.50
2023-01-02T11:05:08.322Z,9.40
2023-01-02T11:07:38.203Z,9.30
2023-01-02T11:10:12.089Z,9.50
2023-01-02T11:12:47.227Z,9.60
2023-01-02T11:15:14.523Z,9.60
2023-01-02T11:17:42.830Z,9.30
2023-01-02T11:20:36.220Z,9.40
2023-01-02T11:23:03.574Z,9.30
2023-01-02T11:25:40.587Z,9.40
2023-01-02T11:28:07.184Z,9.30
2023-01-02T11:30:47.663Z,9.30
2023-01-02T11:33:14.241Z,9.40
2023-01-02T11:35:57.691Z,9.30
2023-01-02T11:38:29.684Z,9.30
2023-01-02T11:41:01.614Z,9.30
2023-01-02T11:43:49.136Z,9.20
2023-01-02T11:46:21.584Z,9.30
2023-01-02T11:48:48.213Z,9.30
2023-01-02T11:51:17.797Z,9.50
2023-01-02T11:53:47.742Z,9.30
2023-01-02T11:56:27.173Z,9.40
2023-01-02T11:59:00.447Z,9.20
2023-01-02T12:01:46.272Z,9.00
2023-01-02T12:04:13.210Z,9.20
2023-01-02T12:06:52.739Z,9.20
2023-01-02T12:09:44.282Z,9.10
2023-01-02T12:12:38.747Z,9.10
2023-01-02T12:15:08.441Z,8.80
2023-01-02T12:18:10.419Z,9.20
2023-01-02T12:20:43.159Z,9.60
2023-01-02T12:23:48.150Z,9.10
2023-01-02T12:26:38.371Z,9.30
2023-01-02T12:29:46.399Z,9.00
2023-01-02T12:32:16.956Z,9.40
2023-01-02T12:35:01.938Z,8.80
2023-01-02T12:37:47.295Z,9.00
2023-01-02T12:40:32.763Z,8.90
2023-01-02T12:43:20.967Z,8.30
2023-01-02T12:46:08.964Z,8.60
2023-01-02T12:48:46.154Z,8.30
2023-01-02T12:51:19.509Z,8.10
2023-01-02T12:54:19.650Z,8.50
2023-01-02T12:57:28.825Z,8.30
2023-01-02T13:00:07.367Z,8.10
2023-01-02T13:02:49.248Z,7.80
2023-01-02T13:05:20.457Z,7.80
2023-01-02T13:07:51.200Z,8.10
2023-01-02T13:10:20.459Z,8.60
2023-01-02T13:12:47.178Z,8.00
2023-01-02T13:15:22.040Z,8.20
2023-01-02T13:17:57.744Z,7.80
2023-01-02T13:20:43.252Z,7.80
2023-01-02T13:23:18.821Z,8.20
2023-01-02T13:25:47.159Z,8.70
2023-01-02T13:28:14.087Z,8.80
2023-01-02T13:31:35.220Z,9.00
2023-01-02T13:33:48.599Z,8.90
2023-01-02T13:36:29.816Z,8.70
2023-01-02T13:39:00.756Z,8.40
2023-01-02T13:41:28.110Z,8.30
2023-01-02T13:43:56.809Z,7.90
2023-01-02T13:47:02.144Z,7.70
2023-01-02T13:49:19.266Z,7.60
2023-01-02T13:51:45.889Z,8.00
2023-01-02T13:54:18.034Z,7.70
2023-01-02T13:57:13.727Z,7.40
2023-01-02T13:59:58.853Z,7.90
2023-01-02T14:02:25.578Z,7.70
2023-01-02T14:04:52.458Z,7.60
2023-01-02T14:07:25.184Z,7.50
2023-01-02T14:10:15.631Z,7.60
2023-01-02T14:13:04.851Z,7.70
2023-01-02T14:15:31.472Z,8.10
2023-01-02T14:18:05.668Z,8.20
2023-01-02T14:20:33.904Z,7.90
2023-01-02T14:23:05.872Z,8.30
2023-01-02T14:25:32.597Z,8.50
2023-01-02T14:28:03.682Z,8.20
2023-01-02T14:30:39.031Z,8.10
2023-01-02T14:33:22.605Z,9.00
2023-01-02T14:35:50.541Z,8.40
2023-01-02T14:38:22.603Z,8.00
2023-01-02T14:40:49.329Z,8.50
2023-01-02T14:43:32.572Z,8.80
2023-01-02T14:45:59.205Z,8.90
2023-01-02T14:48:41.207Z,8.90
2023-01-02T14:51:16.843Z,8.10
2023-01-02T14:53:52.182Z,7.70
2023-01-02T14:56:20.847Z,7.10
2023-01-02T14:58:48.333Z,7.00
2023-01-02T15:01:43.423Z,7.30
2023-01-02T15:04:21.288Z,7.00
2023-01-02T15:06:51.509Z,7.00
2023-01-02T15:09:29.077Z,7.50
2023-01-02T15:12:15.612Z,6.80
2023-01-02T15:14:42.488Z,7.50
2023-01-02T15:17:19.764Z,6.80
2023-01-02T15:19:46.509Z,7.00
2023-01-02T15:22:22.967Z,7.20
2023-01-02T15:24:51.172Z,7.20
2023-01-02T15:27:22.458Z,7.80
2023-01-02T15:29:50.989Z,7.40
2023-01-02T15:32:19.489Z,7.00
2023-01-02T15:34:46.184Z,8.30
2023-01-02T15:37:12.800Z,7.70
2023-01-02T15:39:41.247Z,7.70
2023-01-02T15:42:31.011Z,8.50
2023-01-02T15:45:09.852Z,7.30
2023-01-02T15:47:38.453Z,8.40
2023-01-02T15:50:18.514Z,7.90
2023-01-02T15:52:45.395Z,7.50
2023-01-02T15:55:16.694Z,7.90
2023-01-02T15:57:51.131Z,7.40
2023-01-02T16:00:37.401Z,7.80
2023-01-02T16:03:04.232Z,7.80
2023-01-02T16:05:31.237Z,7.10
2023-01-02T16:07:58.603Z,7.50
2023-01-02T16:10:29.364Z,7.50
2023-01-02T16:13:03.569Z,7.70
2023-01-02T16:15:31.759Z,8.00
2023-01-02T16:17:58.432Z,7.40
2023-01-02T16:20:25.808Z,7.20
2023-01-02T16:23:01.457Z,7.10
2023-01-02T16:25:29.460Z,7.30
2023-01-02T16:28:35.604Z,7.40
2023-01-02T16:31:12.255Z,7.10
2023-01-02T16:33:39.055Z,7.90
2023-01-02T16:36:05.668Z,7.20
2023-01-02T16:38:44.736Z,7.50
2023-01-02T16:41:38.001Z,8.00
2023-01-02T16:44:12.183Z,6.90
2023-01-02T16:46:38.940Z,7.90
2023-01-02T16:49:05.715Z,7.20
2023-01-02T16:51:32.385Z,7.00
2023-01-02T16:53:59.111Z,7.20
2023-01-02T16:56:25.753Z,6.90
2023-01-02T16:58:52.330Z,8.10
2023-01-02T17:01:19.083Z,8.20
2023-01-02T17:03:45.782Z,7.60
2023-01-02T17:06:14.046Z,7.60
2023-01-02T17:08:40.873Z,7.60
2023-01-02T17:11:07.570Z,8.20
2023-01-02T17:13:34.164Z,7.60
2023-01-02T17:16:00.874Z,7.30
2023-01-02T17:18:27.564Z,7.00
2023-01-02T17:20:54.159Z,7.40
2023-01-02T17:23:21.051Z,7.80
2023-01-02T17:25:47.814Z,7.30
2023-01-02T17:28:14.818Z,7.40
2023-01-02T17:30:42.403Z,7.80
2023-01-02T17:33:09.034Z,7.60
2023-01-02T17:35:35.678Z,8.00
2023-01-02T17:38:02.312Z,8.00
2023-01-02T17:40:28.998Z,6.80
2023-01-02T17:42:55.603Z,6.80
2023-01-02T17:45:22.280Z,7.30
2023-01-02T17:48:01.121Z,7.30
2023-01-02T17:50:29.153Z,7.00
2023-01-02T17:52:55.780Z,7.40
2023-01-02T17:55:22.453Z,7.60
2023-01-02T17:57:49.076Z,7.00
2023-01-02T18:00:18.043Z,6.90
2023-01-02T18:02:44.847Z,7.30
2023-01-02T18:05:11.688Z,7.60
2023-01-02T18:07:38.305Z,8.00
2023-01-02T18:10:12.660Z,7.00
2023-01-02T18:12:44.101Z,7.50
2023-01-02T18:15:12.413Z,8.00
2023-01-02T18:17:39.023Z,8.00
2023-01-02T18:20:16.780Z,7.30
2023-01-02T18:22:49.017Z,7.70
2023-01-02T18:25:27.352Z,7.00
2023-01-02T18:28:18.804Z,6.70
2023-01-02T18:30:45.439Z,7.00
2023-01-02T18:33:17.267Z,7.30
2023-01-02T18:35:59.823Z,6.70
2023-01-02T18:38:35.339Z,7.20
2023-01-02T18:41:23.366Z,6.50
2023-01-02T18:43:53.793Z,7.30
2023-01-02T18:47:02.084Z,7.70
2023-01-02T18:49:25.921Z,7.30
2023-01-02T18:52:15.443Z,7.20
2023-01-02T18:54:43.726Z,7.40
2023-01-02T18:57:18.803Z,7.00
2023-01-02T18:59:51.935Z,6.90
2023-01-02T19:02:29.120Z,6.80
2023-01-02T19:04:56.424Z,7.00
2023-01-02T19:07:31.683Z,7.60
2023-01-02T19:10:10.431Z,6.60
2023-01-02T19:13:08.382Z,6.90
2023-01-02T19:15:43.515Z,7.30
2023-01-02T19:18:13.244Z,7.00
2023-01-02T19:20:40.486Z,6.80
2023-01-02T19:23:28.322Z,6.60
2023-01-02T19:25:56.307Z,6.40
2023-01-02T19:28:25.444Z,6.70
2023-01-02T19:30:52.082Z,6.40
2023-01-02T19:33:57.703Z,6.20
2023-01-02T19:36:39.720Z,6.30
2023-01-02T19:39:34.318Z,6.20
2023-01-02T19:42:19.293Z,6.60
2023-01-02T19:45:01.626Z,6.90
2023-01-02T19:47:30.350Z,6.30
2023-01-02T19:49:57.248Z,6.50
2023-01-02T19:52:24.037Z,6.60
2023-01-02T19:54:52.226Z,6.60
2023-01-02T19:57:19.597Z,6.70
2023-01-02T19:59:50.102Z,6.10
2023-01-02T20:02:19.367Z,7.00
2023-01-02T20:04:46.371Z,6.00
2023-01-02T20:07:13.072Z,5.90
2023-01-02T20:09:39.702Z,6.50
2023-01-02T20:12:24.711Z,5.90
2023-01-02T20:14:52.199Z,5.70
2023-01-02T20:17:19.123Z,6.40
2023-01-02T20:19:46.271Z,5.80
2023-01-02T20:22:12.908Z,5.90
2023-01-02T20:24:39.523Z,5.80
2023-01-02T20:27:06.247Z,6.30
2023-01-02T20:29:32.899Z,6.20
2023-01-02T20:31:59.910Z,6.20
2023-01-02T20:34:26.524Z,6.20
2023-01-02T20:36:53.796Z,6.00
2023-01-02T20:39:20.485Z,5.90
2023-01-02T20:41:47.107Z,6.50
2023-01-02T20:44:13.887Z,6.20
2023-01-02T20:46:41.025Z,6.60
2023-01-02T20:49:07.749Z,6.20
2023-01-02T20:51:35.250Z,6.50
2023-01-02T20:54:02.061Z,6.00
2023-01-02T20:56:28.830Z,6.20
2023-01-02T20:58:55.619Z,6.20
2023-01-02T21:01:22.701Z,6.50
2023-01-02T21:03:49.499Z,6.30
2023-01-02T21:06:16.323Z,6.20
2023-01-02T21:08:42.974Z,6.10
2023-01-02T21:11:09.916Z,6.70
2023-01-02T21:13:36.530Z,6.20
2023-01-02T21:16:03.252Z,6.20
2023-01-02T21:18:32.407Z,6.20
2023-01-02T21:21:00.439Z,6.50
2023-01-02T21:23:27.829Z,6.30
2023-01-02T21:25:54.675Z,6.20
2023-01-02T21:28:21.949Z,6.20
2023-01-02T21:30:48.593Z,6.10
2023-01-02T21:33:17.422Z,6.30
2023-01-02T21:35:45.909Z,6.10
2023-01-02T21:38:12.812Z,6.10
2023-01-02T21:40:39.490Z,6.00
2023-01-02T21:43:06.154Z,5.90
2023-01-02T21:45:32.762Z,5.70
2023-01-02T21:47:59.352Z,6.10
2023-01-02T21:50:26.038Z,6.20
2023-01-02T21:52:53.778Z,6.60
2023-01-02T21:55:20.867Z,6.40
2023-01-02T21:58:14.918Z,6.90
2023-01-02T22:00:34.800Z,6.70
2023-01-02T22:03:01.523Z,5.80
2023-01-02T22:05:28.150Z,6.00
2023-01-02T22:07:54.794Z,5.80
2023-01-02T22:10:21.427Z,5.50
2023-01-02T22:12:48.036Z,5.90
2023-01-02T22:15:14.678Z,6.10
2023-01-02T22:17:41.541Z,6.10
2023-01-02T22:20:08.725Z,6.00
2023-01-02T22:22:35.410Z,5.80
2023-01-02T22:25:02.137Z,5.70
2023-01-02T22:27:28.825Z,6.70
2023-01-02T22:32:43.305Z,6.20
2023-01-02T22:35:10.172Z,6.30
2023-01-02T22:37:36.826Z,6.10
2023-01-02T22:40:03.522Z,5.70
2023-01-02T22:43:00.253Z,6.00
2023-01-02T22:45:28.821Z,5.60
2023-01-02T22:47:56.985Z,5.70
2023-01-02T22:50:28.286Z,5.90
2023-01-02T22:52:55.068Z,5.80
2023-01-02T22:55:23.413Z,6.20
2023-01-02T22:57:51.647Z,5.70
2023-01-02T23:00:21.698Z,5.50
2023-01-02T23:02:48.723Z,5.90
2023-01-02T23:05:17.255Z,5.50
2023-01-02T23:07:44.225Z,6.30
2023-01-02T23:10:10.941Z,5.90
2023-01-02T23:12:37.533Z,6.70
2023-01-02T23:15:05.066Z,6.40
2023-01-02T23:17:50.171Z,6.10
2023-01-02T23:20:16.839Z,5.90
2023-01-02T23:22:43.480Z,6.00
2023-01-02T23:25:10.137Z,6.30
2023-01-02T23:27:36.730Z,6.10
2023-01-02T23:30:03.583Z,6.50
2023-01-02T23:32:30.173Z,5.70
2023-01-02T23:34:56.807Z,6.10
2023-01-02T23:37:23.449Z,5.90
2023-01-02T23:39:50.095Z,6.00
2023-01-02T23:42:16.716Z,6.50
2023-01-02T23:44:44.048Z,6.30
2023-01-02T23:47:15.757Z,5.60
2023-01-02T23:49:45.453Z,5.50
2023-01-02T23:52:12.074Z,6.00
2023-01-02T23:54:38.701Z,6.40
2023-01-02T23:57:05.342Z,6.10
2023-01-02T23:59:31.923Z,6.10
